Time;durP1;ratioP1;P1;durP2;ratioP2;P2;SDS_P1;SDS_P2;PMS_P1;PMS_P2;Temp;Humidity;BMP_temperature;BMP_pressure;BME280_temperature;BME280_humidity;BME280_pressure;Samples;Min_cycle;Max_cycle;Signal;HPM_P1;HPM_P2
2023/01/03 00:01:43;;;;;;;;;;;11.90;99.90;;;;;;5097834;28;19943;-66
2023/01/03 00:04:09;;;;;;;;;;;11.90;99.90;;;;;;5102426;28;19958;-65
2023/01/03 00:06:37;;;;;;;;;;;11.90;99.90;;;;;;5092412;28;19916;-66
2023/01/03 00:09:04;;;;;;;;;;;11.90;99.90;;;;;;5091131;28;19916;-67
2023/01/03 00:14:17;;;;;;;;;;;11.90;99.90;;;;;;5099800;28;19999;-68
2023/01/03 00:16:42;;;;;;;;;;;11.90;99.90;;;;;;5113177;28;19929;-66
2023/01/03 00:19:09;;;;;;;;;;;11.90;99.90;;;;;;5080811;28;19908;-67
2023/01/03 00:21:35;;;;;;;;;;;11.90;99.90;;;;;;5092759;28;19989;-66
2023/01/03 00:24:01;;;;;;;;;;;11.80;99.90;;;;;;5092778;28;19912;-67
2023/01/03 00:26:26;;;;;;;;;;;11.80;99.90;;;;;;5092486;28;20312;-67
2023/01/03 00:28:52;;;;;;;;;;;11.80;99.90;;;;;;5092454;28;19919;-67
2023/01/03 00:31:18;;;;;;;;;;;11.90;99.90;;;;;;5092652;28;20290;-65
2023/01/03 00:33:43;;;;;;;;;;;12.00;99.90;;;;;;5089771;28;19912;-66
2023/01/03 00:36:09;;;;;;;;;;;11.90;99.90;;;;;;5090990;28;20382;-67
2023/01/03 00:38:35;;;;;;;;;;;11.90;99.90;;;;;;5072308;28;20290;-67
2023/01/03 00:41:08;;;;;;;;;;;11.80;99.90;;;;;;5075203;28;19920;-67
2023/01/03 00:43:34;;;;;;;;;;;11.80;99.90;;;;;;5094059;28;20036;-66
2023/01/03 00:45:59;;;;;;;;;;;11.80;99.90;;;;;;5106381;28;20415;-67
2023/01/03 00:48:25;;;;;;;;;;;11.90;99.90;;;;;;5112281;28;20266;-66
2023/01/03 00:50:51;;;;;;;;;;;11.90;99.90;;;;;;5091886;28;20349;-67
2023/01/03 00:53:16;;;;;;;;;;;11.80;99.90;;;;;;5077785;28;20034;-67
2023/01/03 00:55:42;;;;;;;;;;;11.80;99.90;;;;;;5071009;28;19915;-66
2023/01/03 00:58:07;;;;;;;;;;;11.80;99.90;;;;;;5071419;28;19909;-65
2023/01/03 01:00:33;;;;;;;;;;;11.90;99.90;;;;;;5072340;28;19935;-66
2023/01/03 01:02:59;;;;;;;;;;;11.90;99.90;;;;;;5084683;28;19908;-66
2023/01/03 01:05:24;;;;;;;;;;;11.90;99.90;;;;;;5073218;28;19935;-68
2023/01/03 01:07:50;;;;;;;;;;;11.80;99.90;;;;;;5091826;28;20416;-66
2023/01/03 01:10:18;;;;;;;;;;;11.90;99.90;;;;;;5077071;28;19908;-67
2023/01/03 01:12:45;;;;;;;;;;;11.90;99.90;;;;;;5091256;28;19916;-68
2023/01/03 01:15:10;;;;;;;;;;;11.80;99.90;;;;;;5090840;28;19912;-67
2023/01/03 01:17:36;;;;;;;;;;;11.90;99.90;;;;;;5084533;28;20413;-66
2023/01/03 01:20:02;;;;;;;;;;;11.90;99.90;;;;;;5074619;28;20030;-67
2023/01/03 01:22:28;;;;;;;;;;;11.90;99.90;;;;;;5090750;28;19915;-66
2023/01/03 01:24:53;;;;;;;;;;;11.90;99.90;;;;;;5094256;28;19912;-66
2023/01/03 01:27:19;;;;;;;;;;;11.90;99.90;;;;;;5087113;28;19960;-67
2023/01/03 01:29:44;;;;;;;;;;;11.90;99.90;;;;;;5090334;28;19920;-68
2023/01/03 01:32:10;;;;;;;;;;;11.90;99.90;;;;;;5090437;28;20435;-68
2023/01/03 01:34:35;;;;;;;;;;;11.90;99.90;;;;;;5090727;28;19930;-67
2023/01/03 01:37:01;;;;;;;;;;;12.00;99.90;;;;;;5090638;28;20427;-65
2023/01/03 01:39:27;;;;;;;;;;;11.90;99.90;;;;;;5087636;28;19914;-70
2023/01/03 01:44:41;;;;;;;;;;;11.90;99.90;;;;;;5079494;28;19927;-66
2023/01/03 01:47:31;;;;;;;;;;;12.00;99.90;;;;;;5085356;28;20331;-69
2023/01/03 01:50:12;;;;;;;;;;;12.00;99.90;;;;;;5099774;28;19908;-66
2023/01/03 01:52:39;;;;;;;;;;;12.00;99.90;;;;;;5081620;28;19957;-68
2023/01/03 01:55:07;;;;;;;;;;;12.00;99.90;;;;;;5070388;28;19909;-65
2023/01/03 01:57:34;;;;;;;;;;;12.00;99.90;;;;;;5070098;28;20016;-67
2023/01/03 02:00:00;;;;;;;;;;;12.00;99.90;;;;;;5073764;28;19964;-66
2023/01/03 02:02:26;;;;;;;;;;;12.00;99.90;;;;;;5090244;28;20336;-67
2023/01/03 02:04:52;;;;;;;;;;;12.00;99.90;;;;;;5087577;28;20274;-65
2023/01/03 02:07:19;;;;;;;;;;;12.00;99.90;;;;;;5086328;28;19955;-66
2023/01/03 02:09:45;;;;;;;;;;;12.00;99.90;;;;;;5089837;28;20320;-66
2023/01/03 02:15:14;;;;;;;;;;;11.90;99.90;;;;;;5088025;28;20029;-67
2023/01/03 02:18:06;;;;;;;;;;;11.90;99.90;;;;;;5089979;28;19915;-66
2023/01/03 02:20:40;;;;;;;;;;;12.00;99.90;;;;;;5105813;28;20373;-67
2023/01/03 02:23:25;;;;;;;;;;;12.10;99.90;;;;;;5095828;28;20283;-66
2023/01/03 02:25:50;;;;;;;;;;;12.10;99.90;;;;;;5083269;28;19912;-66
2023/01/03 02:28:35;;;;;;;;;;;12.10;99.90;;;;;;5091080;28;19923;-67
2023/01/03 02:31:06;;;;;;;;;;;12.00;99.90;;;;;;5073965;28;19917;-65
2023/01/03 02:33:38;;;;;;;;;;;12.10;99.90;;;;;;5073251;28;19923;-65
2023/01/03 02:36:10;;;;;;;;;;;12.10;99.90;;;;;;5071931;28;19921;-68
2023/01/03 02:38:54;;;;;;;;;;;12.10;99.90;;;;;;5073486;28;20469;-67
2023/01/03 02:41:41;;;;;;;;;;;12.10;99.90;;;;;;5076105;28;19912;-67
2023/01/03 02:44:24;;;;;;;;;;;12.20;99.90;;;;;;5072447;28;19912;-66
2023/01/03 02:46:52;;;;;;;;;;;12.20;99.90;;;;;;5100977;28;20361;-67
2023/01/03 02:49:18;;;;;;;;;;;12.20;99.90;;;;;;5092575;28;19908;-67
2023/01/03 02:51:45;;;;;;;;;;;12.20;99.90;;;;;;5089115;28;19966;-67
2023/01/03 02:54:14;;;;;;;;;;;12.20;99.90;;;;;;5089856;28;19995;-67
2023/01/03 02:56:43;;;;;;;;;;;12.10;99.90;;;;;;5089458;28;19912;-66
2023/01/03 02:59:12;;;;;;;;;;;12.00;99.90;;;;;;5087653;28;19908;-66
2023/01/03 03:01:43;;;;;;;;;;;12.00;99.90;;;;;;5069743;28;19912;-65
2023/01/03 03:04:13;;;;;;;;;;;12.00;99.90;;;;;;5093606;28;20339;-66
2023/01/03 03:06:44;;;;;;;;;;;12.00;99.90;;;;;;5109979;28;19922;-66
2023/01/03 03:09:10;;;;;;;;;;;11.90;99.90;;;;;;5082571;28;19912;-65
2023/01/03 03:14:29;;;;;;;;;;;12.00;99.90;;;;;;5096491;28;19919;-66
2023/01/03 03:16:58;;;;;;;;;;;12.00;99.90;;;;;;5075411;28;20282;-66
2023/01/03 03:25:09;;;;;;;;;;;12.00;99.90;;;;;;5059046;28;19938;-66
2023/01/03 03:30:22;;;;;;;;;;;12.10;99.90;;;;;;5074630;28;19995;-66
2023/01/03 03:32:50;;;;;;;;;;;12.20;99.90;;;;;;5075593;28;20015;-67
2023/01/03 03:35:19;;;;;;;;;;;12.20;99.90;;;;;;5106116;28;19962;-66
2023/01/03 03:37:47;;;;;;;;;;;12.10;99.90;;;;;;5113619;28;19908;-65
2023/01/03 03:45:48;;;;;;;;;;;12.00;99.90;;;;;;5077194;28;20555;-68
2023/01/03 03:48:18;;;;;;;;;;;12.00;99.90;;;;;;5063153;28;19919;-67
2023/01/03 03:50:47;;;;;;;;;;;12.00;99.90;;;;;;5064261;28;20285;-67
2023/01/03 03:53:13;;;;;;;;;;;12.00;99.90;;;;;;5075999;28;19917;-68
2023/01/03 03:55:42;;;;;;;;;;;12.00;99.90;;;;;;5076520;28;19947;-67
2023/01/03 03:58:08;;;;;;;;;;;12.00;99.90;;;;;;5074705;28;19916;-67
2023/01/03 04:00:37;;;;;;;;;;;12.00;99.90;;;;;;5076627;28;19924;-66
2023/01/03 04:03:04;;;;;;;;;;;12.00;99.90;;;;;;5074847;28;19984;-67
2023/01/03 04:05:31;;;;;;;;;;;12.00;99.90;;;;;;5079306;28;19917;-65
2023/01/03 04:07:57;;;;;;;;;;;12.00;99.90;;;;;;5074242;28;19947;-65
2023/01/03 04:10:22;;;;;;;;;;;12.00;99.90;;;;;;5077755;28;20001;-67
2023/01/03 04:12:49;;;;;;;;;;;12.00;99.90;;;;;;5073392;28;19916;-65
2023/01/03 04:15:15;;;;;;;;;;;12.10;99.90;;;;;;5076527;28;19927;-65
2023/01/03 04:17:41;;;;;;;;;;;12.10;99.90;;;;;;5076657;28;20001;-66
2023/01/03 04:20:07;;;;;;;;;;;12.10;99.90;;;;;;5075292;28;19963;-67
2023/01/03 04:22:32;;;;;;;;;;;12.20;99.90;;;;;;5078427;28;19924;-65
2023/01/03 04:24:58;;;;;;;;;;;12.20;99.90;;;;;;5085342;28;19912;-68
2023/01/03 04:27:24;;;;;;;;;;;12.20;99.90;;;;;;5109135;28;19908;-67
2023/01/03 04:29:49;;;;;;;;;;;12.20;99.90;;;;;;5111901;28;20002;-66
2023/01/03 04:32:15;;;;;;;;;;;12.20;99.90;;;;;;5094341;28;20349;-66
2023/01/03 04:34:40;;;;;;;;;;;12.20;99.90;;;;;;5086093;28;19999;-66
2023/01/03 04:37:06;;;;;;;;;;;12.20;99.90;;;;;;5091852;28;20372;-67
2023/01/03 04:39:31;;;;;;;;;;;12.30;99.90;;;;;;5091389;28;19966;-66
2023/01/03 04:42:00;;;;;;;;;;;12.20;99.90;;;;;;5090766;28;19999;-68
2023/01/03 04:44:26;;;;;;;;;;;12.20;99.90;;;;;;5097813;28;19919;-68
2023/01/03 04:46:52;;;;;;;;;;;12.20;99.90;;;;;;5092895;28;19919;-67
2023/01/03 04:49:17;;;;;;;;;;;12.20;99.90;;;;;;5094633;28;20615;-67
2023/01/03 04:51:43;;;;;;;;;;;12.30;99.90;;;;;;5077367;28;19946;-67
2023/01/03 04:54:09;;;;;;;;;;;12.30;99.90;;;;;;5091501;28;19915;-67
2023/01/03 04:56:35;;;;;;;;;;;12.20;99.90;;;;;;5079255;28;20002;-65
2023/01/03 04:59:01;;;;;;;;;;;12.20;99.90;;;;;;5074688;28;19966;-68
2023/01/03 05:01:27;;;;;;;;;;;12.20;99.90;;;;;;5075840;28;19940;-66
2023/01/03 05:03:56;;;;;;;;;;;12.20;99.90;;;;;;5074169;28;19977;-67
2023/01/03 05:06:21;;;;;;;;;;;12.20;99.90;;;;;;5074794;28;20349;-65
2023/01/03 05:08:47;;;;;;;;;;;12.20;99.90;;;;;;5075653;28;19984;-67
2023/01/03 05:11:13;;;;;;;;;;;12.30;99.90;;;;;;5077872;28;19933;-67
2023/01/03 05:13:39;;;;;;;;;;;12.30;99.90;;;;;;5072181;28;20011;-66
2023/01/03 05:16:09;;;;;;;;;;;12.30;99.90;;;;;;5073629;28;19928;-67
2023/01/03 05:18:35;;;;;;;;;;;12.40;99.90;;;;;;5074885;28;19927;-67
2023/01/03 05:26:38;;;;;;;;;;;12.50;99.90;;;;;;5074307;28;19919;-66
2023/01/03 05:29:04;;;;;;;;;;;12.40;99.90;;;;;;5078561;28;20221;-68
2023/01/03 05:31:29;;;;;;;;;;;12.30;99.90;;;;;;5076603;28;19916;-66
2023/01/03 05:33:55;;;;;;;;;;;12.30;99.90;;;;;;5083626;28;19922;-68
2023/01/03 05:36:21;;;;;;;;;;;12.40;99.90;;;;;;5104944;28;20258;-67
2023/01/03 05:38:47;;;;;;;;;;;12.30;99.90;;;;;;5110636;28;19908;-67
2023/01/03 05:41:13;;;;;;;;;;;12.30;99.90;;;;;;5104937;28;19912;-68
2023/01/03 05:43:38;;;;;;;;;;;12.20;99.90;;;;;;5104996;28;19925;-68
2023/01/03 05:46:04;;;;;;;;;;;12.30;99.90;;;;;;5073433;28;19916;-66
2023/01/03 05:48:30;;;;;;;;;;;12.20;99.90;;;;;;5073110;28;19920;-67
2023/01/03 05:50:56;;;;;;;;;;;12.10;99.90;;;;;;5073870;28;20547;-67
2023/01/03 05:53:22;;;;;;;;;;;12.10;99.90;;;;;;5071947;28;19916;-66
2023/01/03 05:55:48;;;;;;;;;;;12.10;99.90;;;;;;5072635;28;19919;-67
2023/01/03 05:58:13;;;;;;;;;;;12.00;99.90;;;;;;5072988;28;19920;-65
2023/01/03 06:00:39;;;;;;;;;;;12.10;99.90;;;;;;5081362;28;19998;-67
2023/01/03 06:03:05;;;;;;;;;;;12.10;99.90;;;;;;5077904;28;19928;-67
2023/01/03 06:05:30;;;;;;;;;;;12.10;99.90;;;;;;5073313;28;20407;-66
2023/01/03 06:07:58;;;;;;;;;;;12.10;99.90;;;;;;5073344;28;20822;-66
2023/01/03 06:10:23;;;;;;;;;;;12.10;99.90;;;;;;5074955;28;19916;-67
2023/01/03 06:12:49;;;;;;;;;;;12.10;99.90;;;;;;5077764;28;19962;-66
2023/01/03 06:15:14;;;;;;;;;;;12.10;99.90;;;;;;5085306;28;19922;-68
2023/01/03 06:18:01;;;;;;;;;;;12.10;99.90;;;;;;5073886;28;19927;-66
2023/01/03 06:20:26;;;;;;;;;;;12.10;99.90;;;;;;5070460;28;19934;-66
2023/01/03 06:22:53;;;;;;;;;;;12.20;99.90;;;;;;5072157;28;20604;-68
2023/01/03 06:25:18;;;;;;;;;;;12.20;99.90;;;;;;5074434;28;19928;-68
2023/01/03 06:27:44;;;;;;;;;;;12.20;99.90;;;;;;5102827;28;20276;-68
2023/01/03 06:30:10;;;;;;;;;;;12.20;99.90;;;;;;5110996;28;19911;-66
2023/01/03 06:32:35;;;;;;;;;;;12.20;99.90;;;;;;5070188;28;19919;-66
2023/01/03 06:35:01;;;;;;;;;;;12.20;99.90;;;;;;5069862;28;20212;-68
2023/01/03 06:37:27;;;;;;;;;;;12.40;99.90;;;;;;5069923;28;19956;-68
2023/01/03 06:39:52;;;;;;;;;;;12.40;99.90;;;;;;5070742;28;19970;-68
2023/01/03 06:53:15;;;;;;;;;;;12.20;99.90;;;;;;5094796;28;19919;-68
2023/01/03 06:55:42;;;;;;;;;;;12.20;99.90;;;;;;5084055;28;20378;-68
2023/01/03 06:58:08;;;;;;;;;;;12.20;99.90;;;;;;5078722;28;19962;-65
2023/01/03 07:00:35;;;;;;;;;;;12.30;99.90;;;;;;5080014;28;19955;-66
2023/01/03 07:03:00;;;;;;;;;;;12.30;99.90;;;;;;5077117;28;19916;-67
2023/01/03 07:05:26;;;;;;;;;;;12.20;99.90;;;;;;5076116;28;20001;-68
2023/01/03 07:07:52;;;;;;;;;;;12.20;99.90;;;;;;5078850;28;19923;-68
2023/01/03 07:10:17;;;;;;;;;;;12.20;99.90;;;;;;5078599;28;19919;-66
2023/01/03 07:15:27;;;;;;;;;;;12.10;99.90;;;;;;5095587;28;19933;-67
2023/01/03 07:17:53;;;;;;;;;;;12.10;99.90;;;;;;5096176;28;20333;-67
2023/01/03 07:20:19;;;;;;;;;;;12.10;99.90;;;;;;5108608;28;19957;-66
2023/01/03 07:22:44;;;;;;;;;;;12.10;99.90;;;;;;5077287;28;20365;-67
2023/01/03 07:25:10;;;;;;;;;;;12.10;99.90;;;;;;5076910;28;20620;-67
2023/01/03 07:27:36;;;;;;;;;;;12.20;99.90;;;;;;5075789;28;19912;-66
2023/01/03 07:30:01;;;;;;;;;;;12.20;99.90;;;;;;5078138;28;19916;-67
2023/01/03 07:32:27;;;;;;;;;;;12.10;99.90;;;;;;5079680;28;21424;-67
2023/01/03 07:34:52;;;;;;;;;;;12.10;99.90;;;;;;5080582;28;19920;-67
2023/01/03 07:37:18;;;;;;;;;;;12.10;99.90;;;;;;5080850;28;19954;-65
2023/01/03 07:39:44;;;;;;;;;;;12.10;99.90;;;;;;5080737;28;20498;-68
2023/01/03 07:44:53;;;;;;;;;;;12.10;99.90;;;;;;5075119;28;20420;-69
2023/01/03 07:47:19;;;;;;;;;;;12.10;99.90;;;;;;5077609;28;20011;-68
2023/01/03 07:49:45;;;;;;;;;;;12.10;99.90;;;;;;5076553;28;19947;-65
2023/01/03 07:52:10;;;;;;;;;;;12.10;99.90;;;;;;5080352;28;21150;-66
2023/01/03 07:54:36;;;;;;;;;;;12.20;99.90;;;;;;5084573;28;19920;-67
2023/01/03 07:57:01;;;;;;;;;;;12.30;99.90;;;;;;5082129;28;20409;-67
2023/01/03 07:59:27;;;;;;;;;;;12.20;99.90;;;;;;5085761;28;20343;-68
2023/01/03 08:01:53;;;;;;;;;;;12.30;99.90;;;;;;5080202;28;19969;-67
2023/01/03 08:04:18;;;;;;;;;;;12.30;99.90;;;;;;5074538;28;19913;-67
2023/01/03 08:06:44;;;;;;;;;;;12.40;99.90;;;;;;5076458;28;20342;-68
2023/01/03 08:14:38;;;;;;;;;;;12.40;99.90;;;;;;5073538;28;19923;-67
2023/01/03 08:17:03;;;;;;;;;;;12.40;99.90;;;;;;5074349;28;20579;-69
2023/01/03 08:19:29;;;;;;;;;;;12.40;99.90;;;;;;5077706;28;21775;-68
2023/01/03 08:21:54;;;;;;;;;;;12.40;99.90;;;;;;5082913;28;20369;-67
2023/01/03 08:24:20;;;;;;;;;;;12.40;99.90;;;;;;5083116;28;19948;-66
2023/01/03 08:26:46;;;;;;;;;;;12.40;99.90;;;;;;5089836;28;20003;-68
2023/01/03 08:29:11;;;;;;;;;;;12.40;99.90;;;;;;5112596;28;20339;-67
2023/01/03 08:31:41;;;;;;;;;;;12.40;99.90;;;;;;5101144;28;19964;-66
2023/01/03 08:34:09;;;;;;;;;;;12.40;99.90;;;;;;5092237;28;19912;-69
2023/01/03 08:36:37;;;;;;;;;;;12.50;99.90;;;;;;5092239;28;19990;-68
2023/01/03 08:39:07;;;;;;;;;;;12.50;99.90;;;;;;5091688;28;19916;-69
2023/01/03 08:41:37;;;;;;;;;;;12.50;99.90;;;;;;5074159;28;19909;-68
2023/01/03 08:44:03;;;;;;;;;;;12.50;99.90;;;;;;5090846;28;19912;-68
2023/01/03 08:46:29;;;;;;;;;;;12.50;99.90;;;;;;5099876;28;19912;-68
2023/01/03 08:48:55;;;;;;;;;;;12.40;99.90;;;;;;5080282;28;20539;-68
2023/01/03 08:51:23;;;;;;;;;;;12.40;99.90;;;;;;5071389;28;20005;-67
2023/01/03 08:53:49;;;;;;;;;;;12.40;99.90;;;;;;5071992;28;20003;-67
2023/01/03 08:56:14;;;;;;;;;;;12.40;99.90;;;;;;5070786;28;20062;-68
2023/01/03 08:58:40;;;;;;;;;;;12.40;99.90;;;;;;5074198;28;19916;-68
2023/01/03 09:01:07;;;;;;;;;;;12.50;99.90;;;;;;5076168;28;19921;-66
2023/01/03 09:03:32;;;;;;;;;;;12.50;99.90;;;;;;5076959;28;20059;-67
2023/01/03 09:05:59;;;;;;;;;;;12.50;99.90;;;;;;5075060;28;20009;-67
2023/01/03 09:08:24;;;;;;;;;;;12.50;99.90;;;;;;5078342;28;19912;-68
2023/01/03 09:10:50;;;;;;;;;;;12.50;99.90;;;;;;5072743;28;19931;-67
2023/01/03 09:13:16;;;;;;;;;;;12.50;99.90;;;;;;5077984;28;19927;-67
2023/01/03 09:15:41;;;;;;;;;;;12.50;99.90;;;;;;5070744;28;19920;-67
2023/01/03 09:18:07;;;;;;;;;;;12.40;99.90;;;;;;5076690;28;20233;-66
2023/01/03 09:20:33;;;;;;;;;;;12.40;99.90;;;;;;5074588;28;19912;-67
2023/01/03 09:22:59;;;;;;;;;;;12.40;99.90;;;;;;5075647;28;20397;-68
2023/01/03 09:25:24;;;;;;;;;;;12.40;99.90;;;;;;5077654;28;20356;-67
2023/01/03 09:27:50;;;;;;;;;;;12.40;99.90;;;;;;5076570;28;19920;-66
2023/01/03 09:30:16;;;;;;;;;;;12.50;99.90;;;;;;5087349;28;20341;-67
2023/01/03 09:32:41;;;;;;;;;;;12.50;99.90;;;;;;5108318;28;19916;-69
2023/01/03 09:35:07;;;;;;;;;;;12.60;99.90;;;;;;5111051;28;19994;-66
2023/01/03 09:37:33;;;;;;;;;;;12.50;99.90;;;;;;5075793;28;19912;-67
2023/01/03 09:39:59;;;;;;;;;;;12.50;99.90;;;;;;5075119;28;20358;-66
2023/01/03 09:45:13;;;;;;;;;;;12.60;99.90;;;;;;5075187;28;20631;-65
2023/01/03 09:47:40;;;;;;;;;;;12.60;99.90;;;;;;5063101;28;19920;-66
2023/01/03 09:50:08;;;;;;;;;;;12.60;99.90;;;;;;5075484;28;19935;-68
2023/01/03 10:03:58;;;;;;;;;;;12.70;99.90;;;;;;5074560;28;19962;-66
2023/01/03 10:06:42;;;;;;;;;;;12.70;99.90;;;;;;5072804;28;20007;-66
2023/01/03 10:09:08;;;;;;;;;;;12.80;99.90;;;;;;5072468;28;19912;-66
2023/01/03 10:11:42;;;;;;;;;;;12.70;99.90;;;;;;5073301;28;19919;-66
2023/01/03 10:14:07;;;;;;;;;;;12.70;99.90;;;;;;5074734;28;19938;-67
2023/01/03 10:16:46;;;;;;;;;;;12.70;99.90;;;;;;5091686;28;19911;-66
2023/01/03 10:19:27;;;;;;;;;;;12.70;99.90;;;;;;5089310;28;19924;-64
2023/01/03 10:22:11;;;;;;;;;;;12.70;99.90;;;;;;5097757;28;19964;-67
2023/01/03 10:24:49;;;;;;;;;;;12.60;99.90;;;;;;5095923;28;20249;-67
2023/01/03 10:27:15;;;;;;;;;;;12.70;99.90;;;;;;5096356;28;19912;-64
2023/01/03 10:29:40;;;;;;;;;;;12.70;99.90;;;;;;5100598;28;19996;-63
2023/01/03 10:32:09;;;;;;;;;;;12.70;99.90;;;;;;5090986;28;19912;-67
2023/01/03 10:34:36;;;;;;;;;;;12.70;99.90;;;;;;5089482;28;19920;-66
2023/01/03 10:37:08;;;;;;;;;;;12.70;99.90;;;;;;5089825;28;19916;-67
2023/01/03 10:39:33;;;;;;;;;;;12.70;99.90;;;;;;5075575;28;19909;-66
2023/01/03 10:41:59;;;;;;;;;;;12.70;99.90;;;;;;5069887;28;19915;-64
2023/01/03 10:44:30;;;;;;;;;;;12.70;99.90;;;;;;5072481;28;19913;-64
2023/01/03 10:46:57;;;;;;;;;;;12.70;99.90;;;;;;5081534;28;19966;-65
2023/01/03 10:49:24;;;;;;;;;;;12.70;99.90;;;;;;5092269;28;19912;-64
2023/01/03 10:51:50;;;;;;;;;;;12.70;99.90;;;;;;5093508;28;19912;-66
2023/01/03 10:54:18;;;;;;;;;;;12.70;99.90;;;;;;5088724;28;19934;-65
2023/01/03 10:56:45;;;;;;;;;;;12.70;99.90;;;;;;5093886;28;19919;-66
2023/01/03 10:59:11;;;;;;;;;;;12.70;99.90;;;;;;5090249;28;19917;-58
2023/01/03 11:01:37;;;;;;;;;;;12.60;99.90;;;;;;5102291;28;19912;-53
2023/01/03 11:04:14;;;;;;;;;;;12.60;99.90;;;;;;5089920;28;19970;-64
2023/01/03 11:07:02;;;;;;;;;;;12.60;99.90;;;;;;5068968;28;19946;-63
2023/01/03 11:09:40;;;;;;;;;;;12.50;99.90;;;;;;5063489;28;19916;-62
2023/01/03 11:12:11;;;;;;;;;;;12.60;99.90;;;;;;5070467;28;19909;-62
2023/01/03 11:14:37;;;;;;;;;;;12.50;99.90;;;;;;5070239;28;20373;-64
2023/01/03 11:17:04;;;;;;;;;;;12.50;99.90;;;;;;5091544;28;19918;-65
2023/01/03 11:19:31;;;;;;;;;;;12.50;99.90;;;;;;5095261;28;20320;-67
2023/01/03 11:22:02;;;;;;;;;;;12.70;99.90;;;;;;5078081;28;19909;-71
2023/01/03 11:24:28;;;;;;;;;;;12.70;99.90;;;;;;5099059;28;19912;-66
2023/01/03 11:26:56;;;;;;;;;;;12.80;99.90;;;;;;5110834;28;19919;-68
2023/01/03 11:29:31;;;;;;;;;;;12.90;99.90;;;;;;5101039;28;19908;-66
2023/01/03 11:32:07;;;;;;;;;;;12.90;99.90;;;;;;5069025;28;20024;-66
2023/01/03 11:34:51;;;;;;;;;;;12.90;99.90;;;;;;5092668;28;19935;-68
2023/01/03 11:37:25;;;;;;;;;;;12.90;99.90;;;;;;5109327;28;19915;-66
2023/01/03 11:40:02;;;;;;;;;;;12.80;99.90;;;;;;5074086;28;19995;-65
2023/01/03 11:42:28;;;;;;;;;;;12.90;99.90;;;;;;5073008;28;20064;-66
2023/01/03 11:45:14;;;;;;;;;;;12.90;99.90;;;;;;5092379;28;19912;-64
2023/01/03 11:47:39;;;;;;;;;;;12.90;99.90;;;;;;5103653;28;19943;-65
2023/01/03 11:50:20;;;;;;;;;;;12.90;99.90;;;;;;5099697;28;20263;-67
2023/01/03 11:52:49;;;;;;;;;;;12.90;99.90;;;;;;5074793;28;20010;-67
2023/01/03 11:55:33;;;;;;;;;;;12.90;99.90;;;;;;5074738;28;19927;-65
2023/01/03 11:58:17;;;;;;;;;;;12.90;99.90;;;;;;5093406;28;20010;-65
2023/01/03 12:00:48;;;;;;;;;;;12.90;99.90;;;;;;5111939;28;20334;-65
2023/01/03 12:03:33;;;;;;;;;;;12.80;99.90;;;;;;5103269;28;19966;-66
2023/01/03 12:06:09;;;;;;;;;;;12.80;99.90;;;;;;5080845;28;20040;-63
2023/01/03 12:08:41;;;;;;;;;;;12.80;99.90;;;;;;5109535;28;20283;-68
2023/01/03 12:11:06;;;;;;;;;;;12.80;99.90;;;;;;5094148;28;20003;-66
2023/01/03 12:13:46;;;;;;;;;;;12.80;99.90;;;;;;5088993;28;20033;-66
2023/01/03 12:16:15;;;;;;;;;;;12.80;99.90;;;;;;5099056;28;19915;-62
2023/01/03 12:18:40;;;;;;;;;;;12.90;99.90;;;;;;5102782;28;19912;-65
2023/01/03 12:21:11;;;;;;;;;;;12.90;99.90;;;;;;5092289;28;19962;-68
2023/01/03 12:23:40;;;;;;;;;;;12.90;99.90;;;;;;5072502;28;19908;-66
2023/01/03 12:26:08;;;;;;;;;;;12.80;99.90;;;;;;5083358;28;19908;-64
2023/01/03 12:28:53;;;;;;;;;;;12.80;99.90;;;;;;5111858;28;19908;-68
2023/01/03 12:31:19;;;;;;;;;;;12.80;99.90;;;;;;5087067;28;19912;-67
2023/01/03 12:34:03;;;;;;;;;;;12.80;99.90;;;;;;5090545;28;19923;-68
2023/01/03 12:36:47;;;;;;;;;;;12.90;99.90;;;;;;5100343;28;19966;-64
2023/01/03 12:39:21;;;;;;;;;;;12.90;99.90;;;;;;5096380;28;19943;-65
2023/01/03 12:41:54;;;;;;;;;;;12.90;99.90;;;;;;5104534;28;19912;-66
2023/01/03 12:44:26;;;;;;;;;;;12.90;99.90;;;;;;5105919;28;19919;-67
2023/01/03 12:46:54;;;;;;;;;;;12.90;99.90;;;;;;5078739;28;20321;-69
2023/01/03 12:49:24;;;;;;;;;;;13.00;99.90;;;;;;5099707;28;19912;-62
2023/01/03 12:51:50;;;;;;;;;;;13.00;99.90;;;;;;5089431;28;19995;-67
2023/01/03 12:54:18;;;;;;;;;;;13.00;99.90;;;;;;5093275;28;20012;-64
2023/01/03 12:56:44;;;;;;;;;;;13.00;99.90;;;;;;5111847;28;19908;-66
2023/01/03 12:59:28;;;;;;;;;;;13.00;99.90;;;;;;5096360;28;20337;-66
2023/01/03 13:01:59;;;;;;;;;;;13.00;99.90;;;;;;5106916;28;20073;-66
2023/01/03 13:04:31;;;;;;;;;;;13.00;99.90;;;;;;5065879;28;19977;-63
2023/01/03 13:07:23;;;;;;;;;;;13.00;99.90;;;;;;5083974;28;19920;-65
2023/01/03 13:09:51;;;;;;;;;;;13.00;99.90;;;;;;5095351;28;19921;-67
2023/01/03 13:12:22;;;;;;;;;;;13.10;99.90;;;;;;5096507;28;20053;-66
2023/01/03 13:14:54;;;;;;;;;;;13.10;99.90;;;;;;5092022;28;19912;-61
2023/01/03 13:17:29;;;;;;;;;;;13.10;99.90;;;;;;5083807;28;20287;-63
2023/01/03 13:19:56;;;;;;;;;;;13.10;99.90;;;;;;5095180;28;19939;-63
2023/01/03 13:22:33;;;;;;;;;;;13.10;99.90;;;;;;5090799;28;20368;-62
2023/01/03 13:25:17;;;;;;;;;;;13.10;99.90;;;;;;5106259;28;19919;-57
2023/01/03 13:27:49;;;;;;;;;;;13.10;99.90;;;;;;5099445;28;19911;-60
2023/01/03 13:30:22;;;;;;;;;;;13.20;99.90;;;;;;5108758;28;20324;-62
2023/01/03 13:32:52;;;;;;;;;;;13.10;99.90;;;;;;5107916;28;20015;-62
2023/01/03 13:35:27;;;;;;;;;;;13.20;99.90;;;;;;5091014;28;19966;-62
2023/01/03 13:37:53;;;;;;;;;;;13.20;99.90;;;;;;5080931;28;20354;-60
2023/01/03 13:40:27;;;;;;;;;;;13.20;99.90;;;;;;5071009;28;19935;-57
2023/01/03 13:43:04;;;;;;;;;;;13.20;99.90;;;;;;5070649;28;19930;-63
2023/01/03 13:45:30;;;;;;;;;;;13.00;99.90;;;;;;5078379;28;19908;-64
2023/01/03 13:47:56;;;;;;;;;;;13.00;99.90;;;;;;5090345;28;19923;-62
2023/01/03 13:50:21;;;;;;;;;;;13.00;99.90;;;;;;5093251;28;19911;-60
2023/01/03 13:52:58;;;;;;;;;;;13.00;99.90;;;;;;5091006;28;20023;-62
2023/01/03 13:55:48;;;;;;;;;;;12.90;99.90;;;;;;5075760;28;19909;-60
2023/01/03 13:58:22;;;;;;;;;;;13.00;99.90;;;;;;5087927;28;19919;-61
2023/01/03 14:00:49;;;;;;;;;;;12.90;99.90;;;;;;5099425;28;19911;-60
2023/01/03 14:03:14;;;;;;;;;;;12.90;99.90;;;;;;5107820;28;19918;-63
2023/01/03 14:05:52;;;;;;;;;;;12.90;99.90;;;;;;5103452;28;19994;-62
2023/01/03 14:08:41;;;;;;;;;;;12.90;99.90;;;;;;5093695;28;19912;-58
2023/01/03 14:11:07;;;;;;;;;;;12.90;99.90;;;;;;5065342;28;20392;-65
2023/01/03 14:13:36;;;;;;;;;;;12.90;99.90;;;;;;5110598;28;19912;-62
2023/01/03 14:16:17;;;;;;;;;;;12.90;99.90;;;;;;5106160;28;19946;-59
2023/01/03 14:18:45;;;;;;;;;;;12.90;99.90;;;;;;5097623;28;19912;-63
2023/01/03 14:21:14;;;;;;;;;;;12.90;99.90;;;;;;5102442;28;20278;-64
2023/01/03 14:23:41;;;;;;;;;;;13.00;99.90;;;;;;5101544;28;19919;-59
2023/01/03 14:26:12;;;;;;;;;;;13.00;99.90;;;;;;5104699;28;20415;-63
2023/01/03 14:28:38;;;;;;;;;;;13.00;99.90;;;;;;5093893;28;20361;-63
2023/01/03 14:31:06;;;;;;;;;;;13.10;99.90;;;;;;5100610;28;19990;-63
2023/01/03 14:33:36;;;;;;;;;;;13.00;99.90;;;;;;5101058;28;19981;-62
2023/01/03 14:36:06;;;;;;;;;;;12.90;99.90;;;;;;5101589;28;19915;-63
2023/01/03 14:38:33;;;;;;;;;;;12.90;99.90;;;;;;5096385;28;19922;-62
2023/01/03 14:40:59;;;;;;;;;;;12.90;99.90;;;;;;5095939;28;20270;-68
2023/01/03 14:43:29;;;;;;;;;;;12.90;99.90;;;;;;5110751;28;19908;-66
2023/01/03 14:45:56;;;;;;;;;;;12.80;99.90;;;;;;5106171;28;19923;-68
2023/01/03 14:48:22;;;;;;;;;;;12.90;99.90;;;;;;5094411;28;20365;-68
2023/01/03 14:50:48;;;;;;;;;;;12.90;99.90;;;;;;5098546;28;20400;-66
2023/01/03 14:53:13;;;;;;;;;;;12.80;99.90;;;;;;5096866;28;19916;-67
2023/01/03 14:55:39;;;;;;;;;;;12.80;99.90;;;;;;5105234;28;19918;-65
2023/01/03 14:58:37;;;;;;;;;;;12.90;99.90;;;;;;5110011;28;20470;-67
2023/01/03 15:01:04;;;;;;;;;;;12.90;99.90;;;;;;5062171;28;19920;-66
2023/01/03 15:03:32;;;;;;;;;;;13.00;99.90;;;;;;5099598;28;20282;-66
2023/01/03 15:05:58;;;;;;;;;;;12.90;99.90;;;;;;5097028;28;19919;-62
2023/01/03 15:08:25;;;;;;;;;;;13.00;99.90;;;;;;5102956;28;19965;-65
2023/01/03 15:11:04;;;;;;;;;;;13.00;99.90;;;;;;5108213;28;20415;-64
2023/01/03 15:13:56;;;;;;;;;;;12.90;99.90;;;;;;5108027;28;20023;-66
2023/01/03 15:16:22;;;;;;;;;;;13.00;99.90;;;;;;5108063;28;19911;-67
2023/01/03 15:18:47;;;;;;;;;;;13.00;99.90;;;;;;5107988;28;19917;-65
2023/01/03 15:21:17;;;;;;;;;;;13.10;99.90;;;;;;5098530;28;20007;-67
2023/01/03 15:23:44;;;;;;;;;;;13.10;99.90;;;;;;5102516;28;19912;-66
2023/01/03 15:26:22;;;;;;;;;;;13.00;99.90;;;;;;5111165;28;20316;-66
2023/01/03 15:28:52;;;;;;;;;;;12.90;99.90;;;;;;5096567;28;19916;-65
2023/01/03 15:31:20;;;;;;;;;;;13.00;99.90;;;;;;5101622;28;20005;-67
2023/01/03 15:33:57;;;;;;;;;;;12.90;99.90;;;;;;5097576;28;20354;-67